sensor_id;sensor_type;location;lat;lon;timestamp;temperature;humidity
71142;DHT22;58808;59.366;17.970;2022-11-13T00:00:34;9.10;99.90
71142;DHT22;58808;59.366;17.970;2022-11-13T00:03:00;9.10;99.90
71142;DHT22;58808;59.366;17.970;2022-11-13T00:05:26;9.10;99.90
71142;DHT22;58808;59.366;17.970;2022-11-13T00:07:51;9.10;99.90
71142;DHT22;58808;59.366;17.970;2022-11-13T00:10:17;9.10;99.90
71142;DHT22;58808;59.366;17.970;2022-11-13T00:12:43;9.10;99.90
71142;DHT22;58808;59.366;17.970;2022-11-13T00:15:09;9.10;99.90
71142;DHT22;58808;59.366;17.970;2022-11-13T00:17:35;9.10;99.90
71142;DHT22;58808;59.366;17.970;2022-11-13T00:20:00;9.10;99.90
71142;DHT22;58808;59.366;17.970;2022-11-13T00:22:26;9.00;99.90
71142;DHT22;58808;59.366;17.970;2022-11-13T00:24:51;8.90;99.90
71142;DHT22;58808;59.366;17.970;2022-11-13T00:27:17;8.90;99.90
71142;DHT22;58808;59.366;17.970;2022-11-13T00:29:43;8.80;99.90
71142;DHT22;58808;59.366;17.970;2022-11-13T00:32:09;8.80;99.90
71142;DHT22;58808;59.366;17.970;2022-11-13T00:34:34;8.70;99.90
71142;DHT22;58808;59.366;17.970;2022-11-13T00:37:00;8.70;99.90
71142;DHT22;58808;59.366;17.970;2022-11-13T00:39:26;8.70;99.90
71142;DHT22;58808;59.366;17.970;2022-11-13T00:41:51;8.70;99.90
71142;DHT22;58808;59.366;17.970;2022-11-13T00:44:17;8.70;99.90
71142;DHT22;58808;59.366;17.970;2022-11-13T00:46:42;8.60;99.90
71142;DHT22;58808;59.366;17.970;2022-11-13T00:49:08;8.60;99.90
71142;DHT22;58808;59.366;17.970;2022-11-13T00:51:34;8.60;99.90
71142;DHT22;58808;59.366;17.970;2022-11-13T00:54:08;8.60;99.90
71142;DHT22;58808;59.366;17.970;2022-11-13T00:56:34;8.50;99.90
71142;DHT22;58808;59.366;17.970;2022-11-13T00:58:59;8.50;99.90
71142;DHT22;58808;59.366;17.970;2022-11-13T01:01:25;8.50;99.90
71142;DHT22;58808;59.366;17.970;2022-11-13T01:03:51;8.40;99.90
71142;DHT22;58808;59.366;17.970;2022-11-13T01:06:22;8.40;99.90
71142;DHT22;58808;59.366;17.970;2022-11-13T01:08:49;8.40;99.90
71142;DHT22;58808;59.366;17.970;2022-11-13T01:11:19;8.40;99.90
71142;DHT22;58808;59.366;17.970;2022-11-13T01:13:48;8.40;99.90
71142;DHT22;58808;59.366;17.970;2022-11-13T01:16:16;8.40;99.90
71142;DHT22;58808;59.366;17.970;2022-11-13T01:18:42;8.40;99.90
71142;DHT22;58808;59.366;17.970;2022-11-13T01:21:13;8.40;99.90
71142;DHT22;58808;59.366;17.970;2022-11-13T01:23:40;8.40;99.90
71142;DHT22;58808;59.366;17.970;2022-11-13T01:26:12;8.40;99.90
71142;DHT22;58808;59.366;17.970;2022-11-13T01:28:39;8.40;99.90
71142;DHT22;58808;59.366;17.970;2022-11-13T01:31:11;8.40;99.90
71142;DHT22;58808;59.366;17.970;2022-11-13T01:33:37;8.30;99.90
71142;DHT22;58808;59.366;17.970;2022-11-13T01:36:10;8.20;99.90
71142;DHT22;58808;59.366;17.970;2022-11-13T01:38:36;8.10;99.90
71142;DHT22;58808;59.366;17.970;2022-11-13T01:41:02;8.10;99.90
71142;DHT22;58808;59.366;17.970;2022-11-13T01:43:36;8.10;99.90
71142;DHT22;58808;59.366;17.970;2022-11-13T01:48:54;8.10;99.90
71142;DHT22;58808;59.366;17.970;2022-11-13T01:51:34;8.20;99.90
71142;DHT22;58808;59.366;17.970;2022-11-13T01:54:03;8.20;99.90
71142;DHT22;58808;59.366;17.970;2022-11-13T01:56:29;8.30;99.90
71142;DHT22;58808;59.366;17.970;2022-11-13T01:59:13;8.30;99.90
71142;DHT22;58808;59.366;17.970;2022-11-13T02:01:39;8.30;99.90
71142;DHT22;58808;59.366;17.970;2022-11-13T02:04:08;8.40;99.90
71142;DHT22;58808;59.366;17.970;2022-11-13T02:07:07;8.30;99.90
71142;DHT22;58808;59.366;17.970;2022-11-13T02:09:37;8.30;99.90
71142;DHT22;58808;59.366;17.970;2022-11-13T02:12:11;8.30;99.90
71142;DHT22;58808;59.366;17.970;2022-11-13T02:14:46;8.20;99.90
71142;DHT22;58808;59.366;17.970;2022-11-13T02:17:21;8.10;99.90
71142;DHT22;58808;59.366;17.970;2022-11-13T02:19:52;8.00;99.90
71142;DHT22;58808;59.366;17.970;2022-11-13T02:25:25;8.10;99.90
71142;DHT22;58808;59.366;17.970;2022-11-13T02:27:51;8.10;99.90
71142;DHT22;58808;59.366;17.970;2022-11-13T02:30:25;8.20;99.90
71142;DHT22;58808;59.366;17.970;2022-11-13T02:32:53;8.10;99.90
71142;DHT22;58808;59.366;17.970;2022-11-13T02:35:32;8.10;99.90
71142;DHT22;58808;59.366;17.970;2022-11-13T02:37:59;8.00;99.90
71142;DHT22;58808;59.366;17.970;2022-11-13T02:40:26;7.90;99.90
71142;DHT22;58808;59.366;17.970;2022-11-13T02:42:52;7.90;99.90
71142;DHT22;58808;59.366;17.970;2022-11-13T02:45:17;7.80;99.90
71142;DHT22;58808;59.366;17.970;2022-11-13T02:47:43;7.70;99.90
71142;DHT22;58808;59.366;17.970;2022-11-13T02:50:10;7.70;99.90
71142;DHT22;58808;59.366;17.970;2022-11-13T02:52:35;7.70;99.90
71142;DHT22;58808;59.366;17.970;2022-11-13T02:55:02;7.60;99.90
71142;DHT22;58808;59.366;17.970;2022-11-13T02:57:27;7.60;99.90
71142;DHT22;58808;59.366;17.970;2022-11-13T02:59:53;7.50;99.90
71142;DHT22;58808;59.366;17.970;2022-11-13T03:02:19;7.50;99.90
71142;DHT22;58808;59.366;17.970;2022-11-13T03:04:44;7.50;99.90
71142;DHT22;58808;59.366;17.970;2022-11-13T03:07:11;7.40;99.90
71142;DHT22;58808;59.366;17.970;2022-11-13T03:09:38;7.50;99.90
71142;DHT22;58808;59.366;17.970;2022-11-13T03:12:04;7.50;99.90
71142;DHT22;58808;59.366;17.970;2022-11-13T03:14:30;7.60;99.90
71142;DHT22;58808;59.366;17.970;2022-11-13T03:16:55;7.70;99.90
71142;DHT22;58808;59.366;17.970;2022-11-13T03:19:21;7.60;99.90
71142;DHT22;58808;59.366;17.970;2022-11-13T03:21:47;7.60;99.90
71142;DHT22;58808;59.366;17.970;2022-11-13T03:24:13;7.70;99.90
71142;DHT22;58808;59.366;17.970;2022-11-13T03:26:38;7.70;99.90
71142;DHT22;58808;59.366;17.970;2022-11-13T03:29:04;7.70;99.90
71142;DHT22;58808;59.366;17.970;2022-11-13T03:31:30;7.70;99.90
71142;DHT22;58808;59.366;17.970;2022-11-13T03:33:55;7.70;99.90
71142;DHT22;58808;59.366;17.970;2022-11-13T03:36:21;7.80;99.90
71142;DHT22;58808;59.366;17.970;2022-11-13T03:38:47;7.70;99.90
71142;DHT22;58808;59.366;17.970;2022-11-13T03:41:12;7.70;99.90
71142;DHT22;58808;59.366;17.970;2022-11-13T03:43:41;7.70;99.90
71142;DHT22;58808;59.366;17.970;2022-11-13T03:46:07;7.70;99.90
71142;DHT22;58808;59.366;17.970;2022-11-13T03:48:33;7.60;99.90
71142;DHT22;58808;59.366;17.970;2022-11-13T03:50:58;7.50;99.90
71142;DHT22;58808;59.366;17.970;2022-11-13T03:53:24;7.40;99.90
71142;DHT22;58808;59.366;17.970;2022-11-13T03:55:50;7.30;99.90
71142;DHT22;58808;59.366;17.970;2022-11-13T03:58:16;7.30;99.90
71142;DHT22;58808;59.366;17.970;2022-11-13T04:00:43;7.20;99.90
71142;DHT22;58808;59.366;17.970;2022-11-13T04:03:08;7.10;99.90
71142;DHT22;58808;59.366;17.970;2022-11-13T04:05:34;7.10;99.90
71142;DHT22;58808;59.366;17.970;2022-11-13T04:08:00;7.00;99.90
71142;DHT22;58808;59.366;17.970;2022-11-13T04:10:25;7.00;99.90
71142;DHT22;58808;59.366;17.970;2022-11-13T04:12:51;6.90;99.90
71142;DHT22;58808;59.366;17.970;2022-11-13T04:15:17;6.90;99.90
71142;DHT22;58808;59.366;17.970;2022-11-13T04:17:42;6.90;99.90
71142;DHT22;58808;59.366;17.970;2022-11-13T04:20:09;6.90;99.90
71142;DHT22;58808;59.366;17.970;2022-11-13T04:22:35;6.90;99.90
71142;DHT22;58808;59.366;17.970;2022-11-13T04:25:01;6.80;99.90
71142;DHT22;58808;59.366;17.970;2022-11-13T04:27:27;6.80;99.90
71142;DHT22;58808;59.366;17.970;2022-11-13T04:29:52;6.80;99.90
71142;DHT22;58808;59.366;17.970;2022-11-13T04:32:18;6.80;99.90
71142;DHT22;58808;59.366;17.970;2022-11-13T04:34:44;6.80;99.90
71142;DHT22;58808;59.366;17.970;2022-11-13T04:37:09;6.70;99.90
71142;DHT22;58808;59.366;17.970;2022-11-13T04:39:35;6.70;99.90
71142;DHT22;58808;59.366;17.970;2022-11-13T04:42:01;6.70;99.90
71142;DHT22;58808;59.366;17.970;2022-11-13T04:44:45;6.70;99.90
71142;DHT22;58808;59.366;17.970;2022-11-13T04:47:10;6.70;99.90
71142;DHT22;58808;59.366;17.970;2022-11-13T04:49:36;6.70;99.90
71142;DHT22;58808;59.366;17.970;2022-11-13T04:52:02;6.70;99.90
71142;DHT22;58808;59.366;17.970;2022-11-13T04:54:27;6.70;99.90
71142;DHT22;58808;59.366;17.970;2022-11-13T04:56:53;6.60;99.90
71142;DHT22;58808;59.366;17.970;2022-11-13T04:59:18;6.60;99.90
71142;DHT22;58808;59.366;17.970;2022-11-13T05:01:44;6.60;99.90
71142;DHT22;58808;59.366;17.970;2022-11-13T05:04:12;6.60;99.90
71142;DHT22;58808;59.366;17.970;2022-11-13T05:06:38;6.60;99.90
71142;DHT22;58808;59.366;17.970;2022-11-13T05:09:04;6.60;99.90
71142;DHT22;58808;59.366;17.970;2022-11-13T05:11:30;6.60;99.90
71142;DHT22;58808;59.366;17.970;2022-11-13T05:13:55;6.50;99.90
71142;DHT22;58808;59.366;17.970;2022-11-13T05:16:21;6.50;99.90
71142;DHT22;58808;59.366;17.970;2022-11-13T05:18:47;6.50;99.90
71142;DHT22;58808;59.366;17.970;2022-11-13T05:21:12;6.50;99.90
71142;DHT22;58808;59.366;17.970;2022-11-13T05:23:38;6.50;99.90
71142;DHT22;58808;59.366;17.970;2022-11-13T05:26:09;6.50;99.90
71142;DHT22;58808;59.366;17.970;2022-11-13T05:28:36;6.50;99.90
71142;DHT22;58808;59.366;17.970;2022-11-13T05:31:12;6.40;99.90
71142;DHT22;58808;59.366;17.970;2022-11-13T05:33:39;6.40;99.90
71142;DHT22;58808;59.366;17.970;2022-11-13T05:36:08;6.40;99.90
71142;DHT22;58808;59.366;17.970;2022-11-13T05:38:35;6.40;99.90
71142;DHT22;58808;59.366;17.970;2022-11-13T05:41:05;6.40;99.90
71142;DHT22;58808;59.366;17.970;2022-11-13T05:43:32;6.30;99.90
71142;DHT22;58808;59.366;17.970;2022-11-13T05:46:01;6.30;99.90
71142;DHT22;58808;59.366;17.970;2022-11-13T05:48:27;6.30;99.90
71142;DHT22;58808;59.366;17.970;2022-11-13T05:50:53;6.20;99.90
71142;DHT22;58808;59.366;17.970;2022-11-13T05:53:19;6.20;99.90
71142;DHT22;58808;59.366;17.970;2022-11-13T05:55:45;6.20;99.90
71142;DHT22;58808;59.366;17.970;2022-11-13T05:58:10;6.20;99.90
71142;DHT22;58808;59.366;17.970;2022-11-13T06:00:37;6.20;99.90
71142;DHT22;58808;59.366;17.970;2022-11-13T06:03:03;6.20;99.90
71142;DHT22;58808;59.366;17.970;2022-11-13T06:05:28;6.20;99.90
71142;DHT22;58808;59.366;17.970;2022-11-13T06:07:54;6.20;99.90
71142;DHT22;58808;59.366;17.970;2022-11-13T06:10:19;6.30;99.90
71142;DHT22;58808;59.366;17.970;2022-11-13T06:12:45;6.40;99.90
71142;DHT22;58808;59.366;17.970;2022-11-13T06:15:11;6.50;99.90
71142;DHT22;58808;59.366;17.970;2022-11-13T06:17:36;6.50;99.90
71142;DHT22;58808;59.366;17.970;2022-11-13T06:20:03;6.50;99.90
71142;DHT22;58808;59.366;17.970;2022-11-13T06:22:28;6.50;99.90
71142;DHT22;58808;59.366;17.970;2022-11-13T06:24:54;6.50;99.90
71142;DHT22;58808;59.366;17.970;2022-11-13T06:27:20;6.40;99.90
71142;DHT22;58808;59.366;17.970;2022-11-13T06:29:45;6.40;99.90
71142;DHT22;58808;59.366;17.970;2022-11-13T06:32:11;6.40;99.90
71142;DHT22;58808;59.366;17.970;2022-11-13T06:34:37;6.30;99.90
71142;DHT22;58808;59.366;17.970;2022-11-13T06:37:05;6.30;99.90
71142;DHT22;58808;59.366;17.970;2022-11-13T06:39:31;6.30;99.90
71142;DHT22;58808;59.366;17.970;2022-11-13T06:42:02;6.30;99.90
71142;DHT22;58808;59.366;17.970;2022-11-13T06:44:43;6.30;99.90
71142;DHT22;58808;59.366;17.970;2022-11-13T06:47:09;6.30;99.90
71142;DHT22;58808;59.366;17.970;2022-11-13T06:49:34;6.30;99.90
71142;DHT22;58808;59.366;17.970;2022-11-13T06:52:00;6.20;99.90
71142;DHT22;58808;59.366;17.970;2022-11-13T06:54:26;6.10;99.90
71142;DHT22;58808;59.366;17.970;2022-11-13T06:56:54;6.10;99.90
71142;DHT22;58808;59.366;17.970;2022-11-13T06:59:20;6.10;99.90
71142;DHT22;58808;59.366;17.970;2022-11-13T07:01:49;6.00;99.90
71142;DHT22;58808;59.366;17.970;2022-11-13T07:04:18;6.00;99.90
71142;DHT22;58808;59.366;17.970;2022-11-13T07:06:49;6.00;99.90
71142;DHT22;58808;59.366;17.970;2022-11-13T07:09:18;6.00;99.90
71142;DHT22;58808;59.366;17.970;2022-11-13T07:11:43;6.10;99.90
71142;DHT22;58808;59.366;17.970;2022-11-13T07:14:15;6.10;99.90
71142;DHT22;58808;59.366;17.970;2022-11-13T07:16:46;6.10;99.90
71142;DHT22;58808;59.366;17.970;2022-11-13T07:19:11;6.00;99.90
71142;DHT22;58808;59.366;17.970;2022-11-13T07:21:37;6.00;99.90
71142;DHT22;58808;59.366;17.970;2022-11-13T07:24:03;6.00;99.90
71142;DHT22;58808;59.366;17.970;2022-11-13T07:26:31;6.00;99.90
71142;DHT22;58808;59.366;17.970;2022-11-13T07:28:57;6.00;99.90
71142;DHT22;58808;59.366;17.970;2022-11-13T07:31:29;6.00;99.90
71142;DHT22;58808;59.366;17.970;2022-11-13T07:33:57;6.10;99.90
71142;DHT22;58808;59.366;17.970;2022-11-13T07:36:25;6.20;99.90
71142;DHT22;58808;59.366;17.970;2022-11-13T07:38:53;6.20;99.90
71142;DHT22;58808;59.366;17.970;2022-11-13T07:41:21;6.30;99.90
71142;DHT22;58808;59.366;17.970;2022-11-13T07:43:50;6.30;99.90
71142;DHT22;58808;59.366;17.970;2022-11-13T07:46:15;6.30;99.90
71142;DHT22;58808;59.366;17.970;2022-11-13T07:48:41;6.40;99.90
71142;DHT22;58808;59.366;17.970;2022-11-13T07:51:09;6.40;99.90
71142;DHT22;58808;59.366;17.970;2022-11-13T07:53:38;6.40;99.90
71142;DHT22;58808;59.366;17.970;2022-11-13T07:56:10;6.40;99.90
71142;DHT22;58808;59.366;17.970;2022-11-13T07:58:35;6.40;99.90
71142;DHT22;58808;59.366;17.970;2022-11-13T08:01:03;6.40;99.90
71142;DHT22;58808;59.366;17.970;2022-11-13T08:03:34;6.40;99.90
71142;DHT22;58808;59.366;17.970;2022-11-13T08:06:07;6.40;99.90
71142;DHT22;58808;59.366;17.970;2022-11-13T08:08:36;6.40;99.90
71142;DHT22;58808;59.366;17.970;2022-11-13T08:11:23;6.30;99.90
71142;DHT22;58808;59.366;17.970;2022-11-13T08:13:51;6.20;99.90
71142;DHT22;58808;59.366;17.970;2022-11-13T08:16:16;6.20;99.90
71142;DHT22;58808;59.366;17.970;2022-11-13T08:18:42;6.30;99.90
71142;DHT22;58808;59.366;17.970;2022-11-13T08:21:07;6.30;99.90
71142;DHT22;58808;59.366;17.970;2022-11-13T08:23:33;6.20;99.90
71142;DHT22;58808;59.366;17.970;2022-11-13T08:26:03;6.20;99.90
71142;DHT22;58808;59.366;17.970;2022-11-13T08:28:29;6.30;99.90
71142;DHT22;58808;59.366;17.970;2022-11-13T08:30:55;6.30;99.90
71142;DHT22;58808;59.366;17.970;2022-11-13T08:33:20;6.30;99.90
71142;DHT22;58808;59.366;17.970;2022-11-13T08:35:57;6.30;99.90
71142;DHT22;58808;59.366;17.970;2022-11-13T08:38:24;6.30;99.90
71142;DHT22;58808;59.366;17.970;2022-11-13T08:40:50;6.30;99.90
71142;DHT22;58808;59.366;17.970;2022-11-13T08:43:15;6.30;99.90
71142;DHT22;58808;59.366;17.970;2022-11-13T08:45:43;6.30;99.90
71142;DHT22;58808;59.366;17.970;2022-11-13T08:48:09;6.40;99.90
71142;DHT22;58808;59.366;17.970;2022-11-13T08:50:35;6.40;99.90
71142;DHT22;58808;59.366;17.970;2022-11-13T08:53:01;6.50;99.90
71142;DHT22;58808;59.366;17.970;2022-11-13T08:55:27;6.50;99.90
71142;DHT22;58808;59.366;17.970;2022-11-13T08:57:52;6.40;99.90
71142;DHT22;58808;59.366;17.970;2022-11-13T09:00:19;6.40;99.90
71142;DHT22;58808;59.366;17.970;2022-11-13T09:02:45;6.40;99.90
71142;DHT22;58808;59.366;17.970;2022-11-13T09:05:11;6.50;99.90
71142;DHT22;58808;59.366;17.970;2022-11-13T09:07:37;6.60;99.90
71142;DHT22;58808;59.366;17.970;2022-11-13T09:10:04;6.60;99.90
71142;DHT22;58808;59.366;17.970;2022-11-13T09:12:30;6.50;99.90
71142;DHT22;58808;59.366;17.970;2022-11-13T09:14:55;6.50;99.90
71142;DHT22;58808;59.366;17.970;2022-11-13T09:17:21;6.60;99.90
71142;DHT22;58808;59.366;17.970;2022-11-13T09:19:47;6.60;99.90
71142;DHT22;58808;59.366;17.970;2022-11-13T09:22:12;6.70;99.90
71142;DHT22;58808;59.366;17.970;2022-11-13T09:24:38;6.70;99.90
71142;DHT22;58808;59.366;17.970;2022-11-13T09:27:04;6.70;99.90
71142;DHT22;58808;59.366;17.970;2022-11-13T09:29:29;6.70;99.90
71142;DHT22;58808;59.366;17.970;2022-11-13T09:31:55;6.70;99.90
71142;DHT22;58808;59.366;17.970;2022-11-13T09:34:21;6.80;99.90
71142;DHT22;58808;59.366;17.970;2022-11-13T09:36:47;6.80;99.90
71142;DHT22;58808;59.366;17.970;2022-11-13T09:39:13;6.90;99.90
71142;DHT22;58808;59.366;17.970;2022-11-13T09:41:43;6.90;99.90
71142;DHT22;58808;59.366;17.970;2022-11-13T09:44:17;6.90;99.90
71142;DHT22;58808;59.366;17.970;2022-11-13T09:46:50;7.00;99.90
71142;DHT22;58808;59.366;17.970;2022-11-13T09:49:39;7.10;99.90
71142;DHT22;58808;59.366;17.970;2022-11-13T09:52:13;7.10;99.90
71142;DHT22;58808;59.366;17.970;2022-11-13T09:54:40;7.10;99.90
71142;DHT22;58808;59.366;17.970;2022-11-13T09:57:48;7.10;99.90
71142;DHT22;58808;59.366;17.970;2022-11-13T10:00:18;7.30;99.90
71142;DHT22;58808;59.366;17.970;2022-11-13T10:06:39;7.50;99.90
71142;DHT22;58808;59.366;17.970;2022-11-13T10:09:15;7.70;99.90
71142;DHT22;58808;59.366;17.970;2022-11-13T10:14:46;8.00;99.90
71142;DHT22;58808;59.366;17.970;2022-11-13T10:20:00;8.20;99.90
71142;DHT22;58808;59.366;17.970;2022-11-13T10:22:29;8.30;99.90
71142;DHT22;58808;59.366;17.970;2022-11-13T10:25:19;8.40;99.90
71142;DHT22;58808;59.366;17.970;2022-11-13T10:27:53;8.50;99.90
71142;DHT22;58808;59.366;17.970;2022-11-13T10:30:19;8.50;99.90
71142;DHT22;58808;59.366;17.970;2022-11-13T10:32:45;8.60;99.90
71142;DHT22;58808;59.366;17.970;2022-11-13T10:40:08;8.70;99.90
71142;DHT22;58808;59.366;17.970;2022-11-13T10:42:40;8.70;99.90
71142;DHT22;58808;59.366;17.970;2022-11-13T10:45:14;8.80;99.90
71142;DHT22;58808;59.366;17.970;2022-11-13T10:47:49;8.90;99.90
71142;DHT22;58808;59.366;17.970;2022-11-13T10:50:21;8.90;99.90
71142;DHT22;58808;59.366;17.970;2022-11-13T10:52:49;9.00;99.90
71142;DHT22;58808;59.366;17.970;2022-11-13T10:55:36;9.10;99.90
71142;DHT22;58808;59.366;17.970;2022-11-13T10:58:10;9.10;99.90
71142;DHT22;58808;59.366;17.970;2022-11-13T11:00:37;9.30;99.90
71142;DHT22;58808;59.366;17.970;2022-11-13T11:05:51;9.40;99.90
71142;DHT22;58808;59.366;17.970;2022-11-13T11:08:17;9.50;99.90
71142;DHT22;58808;59.366;17.970;2022-11-13T11:11:00;9.50;99.90
71142;DHT22;58808;59.366;17.970;2022-11-13T11:13:44;9.60;99.90
71142;DHT22;58808;59.366;17.970;2022-11-13T11:16:21;9.70;99.90
71142;DHT22;58808;59.366;17.970;2022-11-13T11:18:59;9.80;99.90
71142;DHT22;58808;59.366;17.970;2022-11-13T11:21:29;9.90;99.90
71142;DHT22;58808;59.366;17.970;2022-11-13T11:24:13;10.10;99.90
71142;DHT22;58808;59.366;17.970;2022-11-13T11:26:51;10.20;99.90
71142;DHT22;58808;59.366;17.970;2022-11-13T11:29:42;10.30;99.90
71142;DHT22;58808;59.366;17.970;2022-11-13T11:35:11;10.50;99.90
71142;DHT22;58808;59.366;17.970;2022-11-13T11:37:54;10.50;99.90
71142;DHT22;58808;59.366;17.970;2022-11-13T11:40:42;10.60;99.90
71142;DHT22;58808;59.366;17.970;2022-11-13T11:45:56;10.80;99.90
71142;DHT22;58808;59.366;17.970;2022-11-13T11:48:26;10.80;99.90
71142;DHT22;58808;59.366;17.970;2022-11-13T11:56:50;10.60;99.90
71142;DHT22;58808;59.366;17.970;2022-11-13T11:59:57;10.50;99.90
71142;DHT22;58808;59.366;17.970;2022-11-13T12:11:24;10.40;99.90
71142;DHT22;58808;59.366;17.970;2022-11-13T12:14:10;10.40;99.90
71142;DHT22;58808;59.366;17.970;2022-11-13T12:16:49;10.50;99.90
71142;DHT22;58808;59.366;17.970;2022-11-13T12:22:21;10.50;99.90
71142;DHT22;58808;59.366;17.970;2022-11-13T12:28:08;10.40;99.90
71142;DHT22;58808;59.366;17.970;2022-11-13T12:36:13;10.40;99.90
71142;DHT22;58808;59.366;17.970;2022-11-13T12:39:10;10.40;99.90
71142;DHT22;58808;59.366;17.970;2022-11-13T12:42:10;10.40;99.90
71142;DHT22;58808;59.366;17.970;2022-11-13T12:44:48;10.40;99.90
71142;DHT22;58808;59.366;17.970;2022-11-13T12:47:16;10.40;99.90
71142;DHT22;58808;59.366;17.970;2022-11-13T12:49:42;10.30;99.90
71142;DHT22;58808;59.366;17.970;2022-11-13T12:52:22;10.30;99.90
71142;DHT22;58808;59.366;17.970;2022-11-13T12:54:49;10.20;99.90
71142;DHT22;58808;59.366;17.970;2022-11-13T12:57:20;10.20;99.90
71142;DHT22;58808;59.366;17.970;2022-11-13T12:59:53;10.20;99.90
71142;DHT22;58808;59.366;17.970;2022-11-13T13:02:39;10.20;99.90
71142;DHT22;58808;59.366;17.970;2022-11-13T13:05:31;10.20;99.90
71142;DHT22;58808;59.366;17.970;2022-11-13T13:08:30;10.20;99.90
71142;DHT22;58808;59.366;17.970;2022-11-13T13:13:39;10.10;99.90
71142;DHT22;58808;59.366;17.970;2022-11-13T13:16:10;10.10;99.90
71142;DHT22;58808;59.366;17.970;2022-11-13T13:18:43;10.10;99.90
71142;DHT22;58808;59.366;17.970;2022-11-13T13:21:11;10.10;99.90
71142;DHT22;58808;59.366;17.970;2022-11-13T13:23:47;10.00;99.90
71142;DHT22;58808;59.366;17.970;2022-11-13T13:26:27;10.00;99.90
71142;DHT22;58808;59.366;17.970;2022-11-13T13:29:13;10.00;99.90
71142;DHT22;58808;59.366;17.970;2022-11-13T13:40:26;9.90;99.90
71142;DHT22;58808;59.366;17.970;2022-11-13T13:43:11;9.90;99.90
71142;DHT22;58808;59.366;17.970;2022-11-13T13:45:53;9.90;99.90
71142;DHT22;58808;59.366;17.970;2022-11-13T13:48:24;9.90;99.90
71142;DHT22;58808;59.366;17.970;2022-11-13T13:50:54;9.90;99.90
71142;DHT22;58808;59.366;17.970;2022-11-13T13:53:24;9.90;99.90
71142;DHT22;58808;59.366;17.970;2022-11-13T13:56:03;9.90;99.90
71142;DHT22;58808;59.366;17.970;2022-11-13T13:58:38;9.90;99.90
71142;DHT22;58808;59.366;17.970;2022-11-13T14:01:10;9.90;99.90
71142;DHT22;58808;59.366;17.970;2022-11-13T14:03:37;9.80;99.90
71142;DHT22;58808;59.366;17.970;2022-11-13T14:06:24;9.80;99.90
71142;DHT22;58808;59.366;17.970;2022-11-13T14:08:49;9.80;99.90
71142;DHT22;58808;59.366;17.970;2022-11-13T14:11:21;9.70;99.90
71142;DHT22;58808;59.366;17.970;2022-11-13T14:14:17;9.70;99.90
71142;DHT22;58808;59.366;17.970;2022-11-13T14:17:05;9.70;99.90
71142;DHT22;58808;59.366;17.970;2022-11-13T14:19:39;9.70;99.90
71142;DHT22;58808;59.366;17.970;2022-11-13T14:22:13;9.70;99.90
71142;DHT22;58808;59.366;17.970;2022-11-13T14:27:21;9.50;99.90
71142;DHT22;58808;59.366;17.970;2022-11-13T14:29:50;9.50;99.90
71142;DHT22;58808;59.366;17.970;2022-11-13T14:32:29;9.40;99.90
71142;DHT22;58808;59.366;17.970;2022-11-13T14:34:59;9.30;99.90
71142;DHT22;58808;59.366;17.970;2022-11-13T14:37:34;9.20;99.90
71142;DHT22;58808;59.366;17.970;2022-11-13T14:40:03;9.20;99.90
71142;DHT22;58808;59.366;17.970;2022-11-13T14:42:36;9.10;99.90
71142;DHT22;58808;59.366;17.970;2022-11-13T14:50:32;9.00;99.90
71142;DHT22;58808;59.366;17.970;2022-11-13T14:53:05;8.90;99.90
71142;DHT22;58808;59.366;17.970;2022-11-13T14:55:35;8.90;99.90
71142;DHT22;58808;59.366;17.970;2022-11-13T14:58:01;8.90;99.90
71142;DHT22;58808;59.366;17.970;2022-11-13T15:00:34;8.80;99.90
71142;DHT22;58808;59.366;17.970;2022-11-13T15:03:04;8.80;99.90
71142;DHT22;58808;59.366;17.970;2022-11-13T15:05:31;8.70;99.90
71142;DHT22;58808;59.366;17.970;2022-11-13T15:07:58;8.70;99.90
71142;DHT22;58808;59.366;17.970;2022-11-13T15:10:26;8.70;99.90
71142;DHT22;58808;59.366;17.970;2022-11-13T15:12:52;8.70;99.90
71142;DHT22;58808;59.366;17.970;2022-11-13T15:15:23;8.70;99.90
71142;DHT22;58808;59.366;17.970;2022-11-13T15:17:50;8.70;99.90
71142;DHT22;58808;59.366;17.970;2022-11-13T15:20:21;8.70;99.90
71142;DHT22;58808;59.366;17.970;2022-11-13T15:22:51;8.70;99.90
71142;DHT22;58808;59.366;17.970;2022-11-13T15:25:20;8.60;99.90
71142;DHT22;58808;59.366;17.970;2022-11-13T15:27:49;8.50;99.90
71142;DHT22;58808;59.366;17.970;2022-11-13T15:30:18;8.50;99.90
71142;DHT22;58808;59.366;17.970;2022-11-13T15:32:52;8.40;99.90
71142;DHT22;58808;59.366;17.970;2022-11-13T15:35:19;8.30;99.90
71142;DHT22;58808;59.366;17.970;2022-11-13T15:37:45;8.40;99.90
71142;DHT22;58808;59.366;17.970;2022-11-13T15:40:17;8.50;99.90
71142;DHT22;58808;59.366;17.970;2022-11-13T15:42:43;8.60;99.90
71142;DHT22;58808;59.366;17.970;2022-11-13T15:45:14;8.60;99.90
71142;DHT22;58808;59.366;17.970;2022-11-13T15:47:40;8.60;99.90
71142;DHT22;58808;59.366;17.970;2022-11-13T15:50:07;8.50;99.90
71142;DHT22;58808;59.366;17.970;2022-11-13T15:52:47;8.50;99.90
71142;DHT22;58808;59.366;17.970;2022-11-13T15:55:34;8.40;99.90
71142;DHT22;58808;59.366;17.970;2022-11-13T15:58:00;8.40;99.90
71142;DHT22;58808;59.366;17.970;2022-11-13T16:00:27;8.30;99.90
71142;DHT22;58808;59.366;17.970;2022-11-13T16:02:57;8.40;99.90
71142;DHT22;58808;59.366;17.970;2022-11-13T16:05:24;8.30;99.90
71142;DHT22;58808;59.366;17.970;2022-11-13T16:07:51;8.30;99.90
71142;DHT22;58808;59.366;17.970;2022-11-13T16:10:17;8.30;99.90
71142;DHT22;58808;59.366;17.970;2022-11-13T16:12:43;8.20;99.90
71142;DHT22;58808;59.366;17.970;2022-11-13T16:15:15;8.20;99.90
71142;DHT22;58808;59.366;17.970;2022-11-13T16:17:44;8.10;99.90
71142;DHT22;58808;59.366;17.970;2022-11-13T16:20:16;8.00;99.90
71142;DHT22;58808;59.366;17.970;2022-11-13T16:22:42;8.00;99.90
71142;DHT22;58808;59.366;17.970;2022-11-13T16:25:17;7.90;99.90
71142;DHT22;58808;59.366;17.970;2022-11-13T16:27:46;7.90;99.90
71142;DHT22;58808;59.366;17.970;2022-11-13T16:30:17;7.80;99.90
71142;DHT22;58808;59.366;17.970;2022-11-13T16:32:51;7.80;99.90
71142;DHT22;58808;59.366;17.970;2022-11-13T16:35:18;7.80;99.90
71142;DHT22;58808;59.366;17.970;2022-11-13T16:37:45;7.80;99.90
71142;DHT22;58808;59.366;17.970;2022-11-13T16:40:20;7.70;99.90
71142;DHT22;58808;59.366;17.970;2022-11-13T16:42:49;7.70;99.90
71142;DHT22;58808;59.366;17.970;2022-11-13T16:45:25;7.70;99.90
71142;DHT22;58808;59.366;17.970;2022-11-13T16:47:51;7.70;99.90
71142;DHT22;58808;59.366;17.970;2022-11-13T16:50:19;7.60;99.90
71142;DHT22;58808;59.366;17.970;2022-11-13T16:52:48;7.60;99.90
71142;DHT22;58808;59.366;17.970;2022-11-13T16:55:13;7.50;99.90
71142;DHT22;58808;59.366;17.970;2022-11-13T16:57:39;7.50;99.90
71142;DHT22;58808;59.366;17.970;2022-11-13T17:00:13;7.50;99.90